createdAt,value
2019-01-29T00:01:36.965Z,294.07
2019-01-29T00:04:06.837Z,286.55
2019-01-29T00:06:36.571Z,278.52
2019-01-29T00:09:08.016Z,285.90
2019-01-29T00:11:37.651Z,282.50
2019-01-29T00:14:07.471Z,284.00
2019-01-29T00:16:37.224Z,285.88
2019-01-29T00:19:07.009Z,283.45
2019-01-29T00:21:36.707Z,283.95
2019-01-29T00:26:35.216Z,202.32
2019-01-29T00:29:05.042Z,26.30
2019-01-29T00:31:34.716Z,3.87
2019-01-29T00:34:04.694Z,91.57
2019-01-29T00:36:34.444Z,157.72
2019-01-29T00:39:06.899Z,102.30
2019-01-29T00:41:36.783Z,196.68
2019-01-29T00:44:06.542Z,204.82
2019-01-29T00:46:36.306Z,205.85
2019-01-29T00:49:07.000Z,238.80
2019-01-29T00:51:36.712Z,252.50
2019-01-29T00:54:06.744Z,92.97
2019-01-29T00:56:36.395Z,28.45
2019-01-29T00:59:06.242Z,34.05
2019-01-29T01:01:35.903Z,43.58
2019-01-29T01:04:05.659Z,44.80
2019-01-29T01:06:35.399Z,61.05
2019-01-29T01:09:07.153Z,203.62
2019-01-29T01:11:36.867Z,91.53
2019-01-29T01:14:06.749Z,66.43
2019-01-29T01:16:36.620Z,83.37
2019-01-29T01:19:06.291Z,65.25
2019-01-29T01:21:36.041Z,57.80
2019-01-29T01:24:05.800Z,31.30
2019-01-29T01:26:35.533Z,44.20
2019-01-29T01:29:05.254Z,20.05
2019-01-29T01:31:35.002Z,31.55
2019-01-29T01:34:04.729Z,25.77
2019-01-29T01:36:34.553Z,41.10
2019-01-29T01:39:07.535Z,37.67
2019-01-29T01:41:37.143Z,33.80
2019-01-29T01:44:06.805Z,22.07
2019-01-29T01:46:36.486Z,16.30
2019-01-29T01:49:06.202Z,31.12
2019-01-29T01:51:35.973Z,31.65
2019-01-29T01:54:05.795Z,17.82
2019-01-29T01:56:36.378Z,27.60
2019-01-29T01:59:06.126Z,17.67
2019-01-29T02:01:35.723Z,18.12
2019-01-29T02:04:05.444Z,27.90
2019-01-29T02:06:35.181Z,15.45
2019-01-29T02:09:07.378Z,16.27
2019-01-29T02:11:37.206Z,30.43
2019-01-29T02:14:07.092Z,15.53
2019-01-29T02:16:36.841Z,21.02
2019-01-29T02:19:06.634Z,19.93
2019-01-29T02:21:37.375Z,24.23
2019-01-29T02:24:07.037Z,24.35
2019-01-29T02:26:36.723Z,11.85
2019-01-29T02:29:06.414Z,16.80
2019-01-29T02:31:36.066Z,23.87
2019-01-29T02:34:05.848Z,18.23
2019-01-29T02:36:35.491Z,11.40
2019-01-29T02:39:07.620Z,17.05
2019-01-29T02:41:37.395Z,8.40
2019-01-29T02:44:07.165Z,8.68
2019-01-29T02:46:36.918Z,14.73
2019-01-29T02:49:06.587Z,9.98
2019-01-29T02:51:36.422Z,8.23
2019-01-29T02:54:06.148Z,8.18
2019-01-29T02:56:35.861Z,14.37
2019-01-29T02:59:06.351Z,9.53
2019-01-29T03:01:36.067Z,10.78
2019-01-29T03:04:05.741Z,7.53
2019-01-29T03:06:35.440Z,6.53
2019-01-29T03:09:07.731Z,7.35
2019-01-29T03:11:37.384Z,9.78
2019-01-29T03:14:07.401Z,11.30
2019-01-29T03:16:37.062Z,7.95
2019-01-29T03:19:06.950Z,7.45
2019-01-29T03:21:36.702Z,8.13
2019-01-29T03:24:06.431Z,8.83
2019-01-29T03:26:36.109Z,10.68
2019-01-29T03:29:05.842Z,9.13
2019-01-29T03:31:35.654Z,10.48
2019-01-29T03:34:05.478Z,10.08
2019-01-29T03:36:35.364Z,9.58
2019-01-29T03:39:07.300Z,12.05
2019-01-29T03:41:37.003Z,13.53
2019-01-29T03:44:08.649Z,7.75
2019-01-29T03:46:38.385Z,14.30
2019-01-29T03:49:08.104Z,6.83
2019-01-29T03:51:37.750Z,10.20
2019-01-29T03:54:07.474Z,6.65
2019-01-29T03:56:37.047Z,8.78
2019-01-29T03:59:06.799Z,9.00
2019-01-29T04:01:36.440Z,7.27
2019-01-29T04:04:06.430Z,11.30
2019-01-29T04:06:36.111Z,7.15
2019-01-29T04:09:08.030Z,9.80
2019-01-29T04:11:37.814Z,7.20
2019-01-29T04:14:07.540Z,6.80
2019-01-29T04:16:37.281Z,7.20
2019-01-29T04:19:06.929Z,6.90
2019-01-29T04:21:36.605Z,6.78
2019-01-29T04:24:06.299Z,6.58
2019-01-29T04:26:35.981Z,6.40
2019-01-29T04:29:05.694Z,5.78
2019-01-29T04:31:35.405Z,6.30
2019-01-29T04:34:05.115Z,6.10
2019-01-29T04:36:34.875Z,5.92
2019-01-29T04:39:07.012Z,6.37
2019-01-29T04:41:36.698Z,7.00
2019-01-29T04:44:06.492Z,28.20
2019-01-29T04:46:36.154Z,18.20
2019-01-29T04:49:05.862Z,7.50
2019-01-29T04:51:35.540Z,10.58
2019-01-29T04:54:05.322Z,6.95
2019-01-29T04:56:34.988Z,7.40
2019-01-29T04:59:04.707Z,9.50
2019-01-29T05:01:34.431Z,12.18
2019-01-29T05:04:04.448Z,15.25
2019-01-29T05:06:34.192Z,7.50
2019-01-29T05:09:07.150Z,8.47
2019-01-29T05:11:37.004Z,7.20
2019-01-29T05:14:06.831Z,8.38
2019-01-29T05:16:36.533Z,12.68
2019-01-29T05:19:06.301Z,16.60
2019-01-29T05:21:35.901Z,13.50
2019-01-29T05:24:06.855Z,9.40
2019-01-29T05:26:36.913Z,15.30
2019-01-29T05:29:06.589Z,11.33
2019-01-29T05:31:36.318Z,12.97
2019-01-29T05:34:05.980Z,17.50
2019-01-29T05:36:35.727Z,17.27
2019-01-29T05:39:08.059Z,16.62
2019-01-29T05:41:37.747Z,16.75
2019-01-29T05:44:07.487Z,20.82
2019-01-29T05:46:37.236Z,15.72
2019-01-29T05:49:06.991Z,18.02
2019-01-29T05:51:36.739Z,17.35
2019-01-29T05:54:15.960Z,9.10
2019-01-29T05:56:37.970Z,9.55
2019-01-29T05:59:07.615Z,8.90
2019-01-29T06:01:37.209Z,8.70
2019-01-29T06:04:06.909Z,9.40
2019-01-29T06:06:36.635Z,7.97
2019-01-29T06:09:07.988Z,5.20
2019-01-29T06:11:37.734Z,5.67
2019-01-29T06:14:08.104Z,6.67
2019-01-29T06:16:38.751Z,5.80
2019-01-29T06:19:08.526Z,5.15
2019-01-29T06:21:38.307Z,4.90
2019-01-29T06:24:08.046Z,5.22
2019-01-29T06:26:38.002Z,5.05
2019-01-29T06:29:07.642Z,5.03
2019-01-29T06:31:37.346Z,4.62
2019-01-29T06:34:07.123Z,5.12
2019-01-29T06:36:36.708Z,5.08
2019-01-29T06:39:07.723Z,5.22
2019-01-29T06:41:37.417Z,5.20
2019-01-29T06:44:06.987Z,5.00
2019-01-29T06:46:36.793Z,5.35
2019-01-29T06:49:07.528Z,5.25
2019-01-29T06:51:37.268Z,4.83
2019-01-29T06:54:06.991Z,4.55
2019-01-29T06:56:38.205Z,5.25
2019-01-29T06:59:07.843Z,5.08
2019-01-29T07:01:37.620Z,5.50
2019-01-29T07:04:07.416Z,5.22
2019-01-29T07:06:37.644Z,5.30
2019-01-29T07:09:08.754Z,4.80
2019-01-29T07:11:38.503Z,5.20
2019-01-29T07:14:08.247Z,5.20
2019-01-29T07:16:39.787Z,5.60
2019-01-29T07:19:11.087Z,5.53
2019-01-29T07:21:42.461Z,5.17
2019-01-29T07:24:12.443Z,5.50
2019-01-29T07:26:42.261Z,5.72
2019-01-29T07:29:12.190Z,5.53
2019-01-29T07:31:41.908Z,5.87
2019-01-29T07:34:12.743Z,5.92
2019-01-29T07:36:42.397Z,5.70
2019-01-29T07:39:12.344Z,6.00
2019-01-29T07:41:42.173Z,5.47
2019-01-29T07:44:12.170Z,5.50
2019-01-29T07:46:41.825Z,5.42
2019-01-29T07:49:11.764Z,5.60
2019-01-29T07:51:41.656Z,5.40
2019-01-29T07:54:11.362Z,5.37
2019-01-29T07:56:41.057Z,5.40
2019-01-29T07:59:10.935Z,6.67
2019-01-29T08:01:40.865Z,6.67
2019-01-29T08:04:11.617Z,5.30
2019-01-29T08:06:41.486Z,7.15
2019-01-29T08:09:11.676Z,5.85
2019-01-29T08:11:41.594Z,5.80
2019-01-29T08:14:11.447Z,5.47
2019-01-29T08:16:41.119Z,6.20
2019-01-29T08:19:10.955Z,5.92
2019-01-29T08:21:40.697Z,5.60
2019-01-29T08:24:10.512Z,5.50
2019-01-29T08:26:40.369Z,5.92
2019-01-29T08:29:10.082Z,5.50
2019-01-29T08:31:39.890Z,5.17
2019-01-29T08:34:09.530Z,5.53
2019-01-29T08:36:39.463Z,5.45
2019-01-29T08:39:09.697Z,5.17
2019-01-29T08:41:40.935Z,5.40
2019-01-29T08:44:10.867Z,5.70
2019-01-29T08:46:40.600Z,5.60
2019-01-29T08:49:10.323Z,5.70
2019-01-29T08:51:40.226Z,5.55
2019-01-29T08:54:09.882Z,5.10
2019-01-29T08:56:39.541Z,27.05
2019-01-29T08:59:09.263Z,9.38
2019-01-29T09:01:40.868Z,6.22
2019-01-29T09:04:10.655Z,5.08
2019-01-29T09:06:40.662Z,5.40
2019-01-29T09:09:10.384Z,5.15
2019-01-29T09:11:40.212Z,4.90
2019-01-29T09:14:09.909Z,5.23
2019-01-29T09:16:39.981Z,4.90
2019-01-29T09:19:09.745Z,5.28
2019-01-29T09:21:39.500Z,5.20
2019-01-29T09:24:09.331Z,5.00
2019-01-29T09:26:39.423Z,4.83
2019-01-29T09:29:17.491Z,4.15
2019-01-29T09:31:40.822Z,4.85
2019-01-29T09:34:11.576Z,4.50
2019-01-29T09:36:41.325Z,4.87
2019-01-29T09:39:11.314Z,5.00
2019-01-29T09:41:41.118Z,4.80
2019-01-29T09:44:10.813Z,4.92
2019-01-29T09:46:40.635Z,5.30
2019-01-29T09:49:11.322Z,4.92
2019-01-29T09:51:41.208Z,4.37
2019-01-29T09:54:11.240Z,4.70
2019-01-29T09:56:41.838Z,4.65
2019-01-29T09:59:11.526Z,4.80
2019-01-29T10:01:41.519Z,5.30
2019-01-29T10:04:11.406Z,4.62
2019-01-29T10:06:41.064Z,4.15
2019-01-29T10:09:10.836Z,4.50
2019-01-29T10:11:40.628Z,4.55
2019-01-29T10:14:10.378Z,4.95
2019-01-29T10:16:40.184Z,4.83
2019-01-29T10:19:10.030Z,4.83
2019-01-29T10:21:39.899Z,4.62
2019-01-29T10:24:09.546Z,4.15
2019-01-29T10:26:39.294Z,3.70
2019-01-29T10:29:09.008Z,3.50
2019-01-29T10:31:38.756Z,3.40
2019-01-29T10:34:08.527Z,3.50
2019-01-29T10:36:38.254Z,3.52
2019-01-29T10:39:10.566Z,3.75
2019-01-29T10:41:41.365Z,4.03
2019-01-29T10:44:11.067Z,4.25
2019-01-29T10:46:41.021Z,4.78
2019-01-29T10:49:10.604Z,4.40
2019-01-29T10:51:41.308Z,4.30
2019-01-29T10:54:10.962Z,4.70
2019-01-29T10:56:40.875Z,4.43
2019-01-29T10:59:12.141Z,4.95
2019-01-29T11:01:42.151Z,4.72
2019-01-29T11:04:12.527Z,4.63
2019-01-29T11:06:43.789Z,4.35
2019-01-29T11:09:13.834Z,4.75
2019-01-29T11:11:43.572Z,4.25
2019-01-29T11:14:13.507Z,5.07
2019-01-29T11:16:43.245Z,4.05
2019-01-29T11:19:13.264Z,4.20
2019-01-29T11:21:43.100Z,5.30
2019-01-29T11:24:13.775Z,3.98
2019-01-29T11:26:43.482Z,3.60
2019-01-29T11:29:13.293Z,3.37
2019-01-29T11:31:42.954Z,3.20
2019-01-29T11:34:12.780Z,3.30
2019-01-29T11:36:42.962Z,3.20
2019-01-29T11:39:12.669Z,3.50
2019-01-29T11:41:43.393Z,3.70
2019-01-29T11:44:13.121Z,3.55
2019-01-29T11:46:43.094Z,3.42
2019-01-29T11:49:13.938Z,10.10
2019-01-29T11:51:43.674Z,4.72
2019-01-29T11:54:13.416Z,2.60
2019-01-29T11:56:43.155Z,2.40
2019-01-29T11:59:12.861Z,2.30
2019-01-29T12:01:42.612Z,4.50
2019-01-29T12:04:12.289Z,5.05
2019-01-29T12:06:42.001Z,5.00
2019-01-29T12:09:11.717Z,5.53
2019-01-29T12:11:41.425Z,5.37
2019-01-29T12:14:11.161Z,5.97
2019-01-29T12:16:40.866Z,5.30
2019-01-29T12:19:10.785Z,5.80
2019-01-29T12:21:40.693Z,5.53
2019-01-29T12:24:11.297Z,4.92
2019-01-29T12:26:41.156Z,5.65
2019-01-29T12:29:10.880Z,6.08
2019-01-29T12:31:41.495Z,5.50
2019-01-29T12:34:11.243Z,5.33
2019-01-29T12:36:40.875Z,5.62
2019-01-29T12:39:10.541Z,5.35
2019-01-29T12:41:40.253Z,5.65
2019-01-29T12:44:09.923Z,6.03
2019-01-29T12:46:39.479Z,5.42
2019-01-29T12:49:09.300Z,5.80
2019-01-29T12:51:39.891Z,5.10
2019-01-29T12:54:09.772Z,5.30
2019-01-29T12:56:39.541Z,5.40
2019-01-29T12:59:09.358Z,5.90
2019-01-29T13:01:39.055Z,4.80
2019-01-29T13:04:08.698Z,6.10
2019-01-29T13:06:38.442Z,5.60
2019-01-29T13:09:09.022Z,5.55
2019-01-29T13:11:38.874Z,6.00
2019-01-29T13:14:08.603Z,5.30
2019-01-29T13:16:39.841Z,6.00
2019-01-29T13:19:10.551Z,5.90
2019-01-29T13:21:40.265Z,5.90
2019-01-29T13:24:10.084Z,5.72
2019-01-29T13:26:39.906Z,5.62
2019-01-29T13:29:09.642Z,4.95
2019-01-29T13:31:39.338Z,6.08
2019-01-29T13:34:09.023Z,5.58
2019-01-29T13:36:38.863Z,5.80
2019-01-29T13:39:08.599Z,5.75
2019-01-29T13:41:38.311Z,4.70
2019-01-29T13:44:08.885Z,5.40
2019-01-29T13:46:38.586Z,4.95
2019-01-29T13:49:08.188Z,5.15
2019-01-29T13:51:37.909Z,4.60
2019-01-29T13:54:08.525Z,5.03
2019-01-29T13:56:39.288Z,4.95
2019-01-29T13:59:09.007Z,4.40
2019-01-29T14:01:38.638Z,4.80
2019-01-29T14:04:08.443Z,4.75
2019-01-29T14:06:38.242Z,4.03
2019-01-29T14:09:08.525Z,4.47
2019-01-29T14:11:38.256Z,5.05
2019-01-29T14:14:08.039Z,4.70
2019-01-29T14:16:37.705Z,4.25
2019-01-29T14:19:07.435Z,4.33
2019-01-29T14:21:37.103Z,4.10
2019-01-29T14:24:06.816Z,3.45
2019-01-29T14:26:36.498Z,3.70
2019-01-29T14:29:06.215Z,3.80
2019-01-29T14:31:35.930Z,3.72
2019-01-29T14:34:06.057Z,3.12
2019-01-29T14:36:35.767Z,3.47
2019-01-29T14:39:11.341Z,3.47
2019-01-29T14:41:41.161Z,3.95
2019-01-29T14:44:11.600Z,3.50
2019-01-29T14:46:42.449Z,3.60
2019-01-29T14:49:12.188Z,3.40
2019-01-29T14:51:41.990Z,3.57
2019-01-29T14:54:12.073Z,3.17
2019-01-29T14:56:41.915Z,3.77
2019-01-29T14:59:12.617Z,3.45
2019-01-29T15:01:43.920Z,3.27
2019-01-29T15:04:13.851Z,3.17
2019-01-29T15:06:43.446Z,3.40
2019-01-29T15:09:13.321Z,2.83
2019-01-29T15:11:43.076Z,3.30
2019-01-29T15:14:13.750Z,3.58
2019-01-29T15:16:45.209Z,3.90
2019-01-29T15:19:14.871Z,4.35
2019-01-29T15:21:44.608Z,4.03
2019-01-29T15:24:14.213Z,3.40
2019-01-29T15:26:44.055Z,3.52
2019-01-29T15:29:13.950Z,3.43
2019-01-29T15:31:43.614Z,3.70
2019-01-29T15:34:13.316Z,3.35
2019-01-29T15:36:44.196Z,3.52
2019-01-29T15:39:14.029Z,3.70
2019-01-29T15:41:43.985Z,3.52
2019-01-29T15:44:13.757Z,3.53
2019-01-29T15:46:43.662Z,3.90
2019-01-29T15:49:13.418Z,3.72
2019-01-29T15:51:43.208Z,4.17
2019-01-29T15:54:12.972Z,4.17
2019-01-29T15:56:42.613Z,4.00
2019-01-29T15:59:13.391Z,4.00
2019-01-29T16:01:43.035Z,3.87
2019-01-29T16:04:12.752Z,3.95
2019-01-29T16:06:42.442Z,3.92
2019-01-29T16:09:12.320Z,3.70
2019-01-29T16:11:42.081Z,3.92
2019-01-29T16:14:11.938Z,4.15
2019-01-29T16:16:41.775Z,4.00
2019-01-29T16:19:11.503Z,3.72
2019-01-29T16:21:41.243Z,4.30
2019-01-29T16:24:10.883Z,4.12
2019-01-29T16:26:40.627Z,4.35
2019-01-29T16:29:10.383Z,4.42
2019-01-29T16:31:40.216Z,4.72
2019-01-29T16:34:09.987Z,4.20
2019-01-29T16:36:39.630Z,4.17
2019-01-29T16:39:09.653Z,4.45
2019-01-29T16:41:39.465Z,5.08
2019-01-29T16:44:09.161Z,5.53
2019-01-29T16:46:38.830Z,5.37
2019-01-29T16:49:08.534Z,5.95
2019-01-29T16:51:42.273Z,5.85
2019-01-29T16:54:10.593Z,5.40
2019-01-29T16:56:40.265Z,5.60
2019-01-29T16:59:10.029Z,5.90
2019-01-29T17:01:39.844Z,4.95
2019-01-29T17:04:09.856Z,5.60
2019-01-29T17:06:39.583Z,5.83
2019-01-29T17:09:09.554Z,6.83
2019-01-29T17:11:39.364Z,6.33
2019-01-29T17:14:08.986Z,5.97
2019-01-29T17:16:41.509Z,5.35
2019-01-29T17:19:11.332Z,6.15
2019-01-29T17:21:42.047Z,5.60
2019-01-29T17:24:11.676Z,5.20
2019-01-29T17:26:41.453Z,5.83
2019-01-29T17:29:11.185Z,5.87
2019-01-29T17:31:41.015Z,5.97
2019-01-29T17:34:10.697Z,5.85
2019-01-29T17:36:40.549Z,6.12
2019-01-29T17:39:10.500Z,6.30
2019-01-29T17:41:40.308Z,6.47
2019-01-29T17:44:10.583Z,6.90
2019-01-29T17:46:40.315Z,6.25
2019-01-29T17:49:10.029Z,6.73
2019-01-29T17:51:39.758Z,6.60
2019-01-29T17:54:09.439Z,6.83
2019-01-29T17:56:39.275Z,6.78
2019-01-29T17:59:08.935Z,6.87
2019-01-29T18:01:38.878Z,6.50
2019-01-29T18:04:08.638Z,7.90
2019-01-29T18:06:38.370Z,9.85
2019-01-29T18:09:09.400Z,12.20
2019-01-29T18:11:39.158Z,15.23
2019-01-29T18:14:08.844Z,14.85
2019-01-29T18:16:38.617Z,9.90
2019-01-29T18:19:08.237Z,9.60
2019-01-29T18:21:37.993Z,13.68
2019-01-29T18:24:07.767Z,13.03
2019-01-29T18:26:37.546Z,12.05
2019-01-29T18:29:07.304Z,9.63
2019-01-29T18:31:37.047Z,9.43
2019-01-29T18:34:06.803Z,9.30
2019-01-29T18:36:36.645Z,12.05
2019-01-29T18:39:07.595Z,10.95
2019-01-29T18:41:37.194Z,8.25
2019-01-29T18:44:07.526Z,7.97
2019-01-29T18:46:37.326Z,98.50
2019-01-29T18:49:07.076Z,156.07
2019-01-29T18:51:36.940Z,158.25
2019-01-29T18:54:08.165Z,7.70
2019-01-29T18:56:38.011Z,8.47
2019-01-29T18:59:08.663Z,7.87
2019-01-29T19:01:38.419Z,7.97
2019-01-29T19:04:09.090Z,129.60
2019-01-29T19:06:40.658Z,124.67
2019-01-29T19:09:10.471Z,126.50
2019-01-29T19:11:40.219Z,219.10
2019-01-29T19:14:09.929Z,208.28
2019-01-29T19:16:39.664Z,175.62
2019-01-29T19:19:09.355Z,180.12
2019-01-29T19:21:39.093Z,157.65
2019-01-29T19:24:09.057Z,156.90
2019-01-29T19:26:38.803Z,157.40
2019-01-29T19:29:08.542Z,160.75
2019-01-29T19:31:38.289Z,153.27
2019-01-29T19:34:08.065Z,155.10
2019-01-29T19:36:37.811Z,151.42
2019-01-29T19:39:09.360Z,156.45
2019-01-29T19:41:39.558Z,155.97
2019-01-29T19:44:09.236Z,154.42
2019-01-29T19:46:39.011Z,154.80
2019-01-29T19:49:08.770Z,154.35
2019-01-29T19:51:38.524Z,162.43
2019-01-29T19:54:08.338Z,161.75
2019-01-29T19:56:38.182Z,163.07
2019-01-29T19:59:07.910Z,163.80
2019-01-29T20:01:37.602Z,161.88
2019-01-29T20:04:07.376Z,163.15
2019-01-29T20:06:37.072Z,161.28
2019-01-29T20:09:09.887Z,168.25
2019-01-29T20:11:39.587Z,185.43
2019-01-29T20:14:09.349Z,221.45
2019-01-29T20:16:39.101Z,176.40
2019-01-29T20:19:08.847Z,177.25
2019-01-29T20:21:38.536Z,178.93
2019-01-29T20:24:09.256Z,183.18
2019-01-29T20:26:38.961Z,182.85
2019-01-29T20:29:08.857Z,182.10
2019-01-29T20:31:39.642Z,181.50
2019-01-29T20:34:09.306Z,183.03
2019-01-29T20:36:40.503Z,182.12
2019-01-29T20:39:10.344Z,179.75
2019-01-29T20:41:40.910Z,181.53
2019-01-29T20:44:10.754Z,175.55
2019-01-29T20:46:40.350Z,178.70
2019-01-29T20:49:10.099Z,175.03
2019-01-29T20:51:39.863Z,173.93
2019-01-29T20:54:09.663Z,173.90
2019-01-29T20:56:39.395Z,172.57
2019-01-29T20:59:09.215Z,172.47
2019-01-29T21:01:39.060Z,171.53
2019-01-29T21:04:09.291Z,171.98
2019-01-29T21:06:40.006Z,170.53
2019-01-29T21:09:09.922Z,171.05
2019-01-29T21:11:40.543Z,165.88
2019-01-29T21:14:10.231Z,167.37
2019-01-29T21:16:39.929Z,166.15
2019-01-29T21:19:09.663Z,168.05
2019-01-29T21:21:39.351Z,166.77
2019-01-29T21:24:09.102Z,167.05
2019-01-29T21:26:38.782Z,164.60
2019-01-29T21:29:08.552Z,163.43
2019-01-29T21:31:38.550Z,168.15
2019-01-29T21:34:08.235Z,163.97
2019-01-29T21:36:38.034Z,162.72
2019-01-29T21:39:08.701Z,164.62
2019-01-29T21:41:39.466Z,168.78
2019-01-29T21:44:09.143Z,166.25
2019-01-29T21:46:38.885Z,163.97
2019-01-29T21:49:08.563Z,166.77
2019-01-29T21:51:38.291Z,164.75
2019-01-29T21:54:08.128Z,165.07
2019-01-29T21:56:37.925Z,168.22
2019-01-29T21:59:13.441Z,165.50
2019-01-29T22:01:39.256Z,164.87
2019-01-29T22:04:08.868Z,165.32
2019-01-29T22:06:38.503Z,164.75
2019-01-29T22:09:08.908Z,166.20
2019-01-29T22:11:38.782Z,170.85
2019-01-29T22:14:08.552Z,165.75
2019-01-29T22:16:38.298Z,161.30
2019-01-29T22:19:08.946Z,166.95
2019-01-29T22:21:38.630Z,164.13
2019-01-29T22:24:08.366Z,162.05
2019-01-29T22:26:38.154Z,160.65
2019-01-29T22:29:07.885Z,159.70
2019-01-29T22:31:38.497Z,160.07
2019-01-29T22:34:08.240Z,158.65
2019-01-29T22:36:39.018Z,158.45
2019-01-29T22:39:09.165Z,158.75
2019-01-29T22:41:39.297Z,159.13
2019-01-29T22:44:08.972Z,155.53
2019-01-29T22:46:38.858Z,156.30
2019-01-29T22:49:08.800Z,155.95
2019-01-29T22:51:38.559Z,157.35
2019-01-29T22:54:08.355Z,159.23
2019-01-29T22:56:38.066Z,160.05
2019-01-29T22:59:07.983Z,160.28
2019-01-29T23:01:38.314Z,161.52
2019-01-29T23:04:09.095Z,164.47
2019-01-29T23:06:50.581Z,161.47
2019-01-29T23:09:20.321Z,160.30
2019-01-29T23:11:50.446Z,160.55
2019-01-29T23:14:20.261Z,161.82
2019-01-29T23:16:50.227Z,161.40
2019-01-29T23:19:20.098Z,160.78
2019-01-29T23:21:49.835Z,162.15
2019-01-29T23:24:19.456Z,163.55
2019-01-29T23:26:49.188Z,166.25
2019-01-29T23:29:18.938Z,164.53
2019-01-29T23:31:48.695Z,167.40
2019-01-29T23:34:18.463Z,166.00
2019-01-29T23:36:48.180Z,167.00
2019-01-29T23:39:17.854Z,165.45
2019-01-29T23:41:47.565Z,165.45
2019-01-29T23:44:17.500Z,168.50
2019-01-29T23:46:47.282Z,170.15
2019-01-29T23:49:16.972Z,170.38
2019-01-29T23:51:46.746Z,173.50
2019-01-29T23:54:17.471Z,171.87
2019-01-29T23:56:47.233Z,172.32
2019-01-29T23:59:17.010Z,177.55
